createdAt,value
2022-08-05T00:01:36.124Z,99465.09
2022-08-05T00:04:17.084Z,99458.53
2022-08-05T00:06:47.217Z,99458.63
2022-08-05T00:09:21.254Z,99461.00
2022-08-05T00:11:56.029Z,99457.59
2022-08-05T00:14:30.668Z,99454.59
2022-08-05T00:17:01.948Z,99455.13
2022-08-05T00:19:33.605Z,99456.25
2022-08-05T00:22:12.173Z,99448.81
2022-08-05T00:24:42.348Z,99455.59
2022-08-05T00:27:16.489Z,99458.91
2022-08-05T00:29:45.169Z,99457.00
2022-08-05T00:32:15.288Z,99453.47
2022-08-05T00:35:04.726Z,99451.56
2022-08-05T00:37:51.358Z,99449.44
2022-08-05T00:40:29.047Z,99450.75
2022-08-05T00:42:59.454Z,99444.03
2022-08-05T00:45:38.446Z,99444.34
2022-08-05T00:48:10.062Z,99445.22
2022-08-05T00:50:39.238Z,99443.91
2022-08-05T00:53:44.739Z,99444.44
2022-08-05T00:55:59.222Z,99438.50
2022-08-05T00:58:28.318Z,99441.34
2022-08-05T01:00:56.755Z,99439.03
2022-08-05T01:03:30.843Z,99442.56
2022-08-05T01:06:02.607Z,99442.28
2022-08-05T01:08:42.701Z,99435.22
2022-08-05T01:11:33.697Z,99441.72
2022-08-05T01:14:15.452Z,99448.66
2022-08-05T01:16:50.316Z,99439.88
2022-08-05T01:20:02.026Z,99431.44
2022-08-05T01:22:47.023Z,99440.16
2022-08-05T01:25:53.303Z,99434.22
2022-08-05T01:28:32.953Z,99437.84
2022-08-05T01:31:06.129Z,99442.25
2022-08-05T01:33:49.253Z,99449.31
2022-08-05T01:36:28.397Z,99447.88
2022-08-05T01:39:01.060Z,99445.41
2022-08-05T01:41:33.342Z,99440.91
2022-08-05T01:44:04.080Z,99442.69
2022-08-05T01:46:42.208Z,99445.91
2022-08-05T01:49:24.417Z,99437.44
2022-08-05T01:51:58.661Z,99448.31
2022-08-05T01:54:31.207Z,99443.75
2022-08-05T01:58:11.438Z,99434.50
2022-08-05T01:59:53.945Z,99441.69
2022-08-05T02:02:28.538Z,99443.22
2022-08-05T02:05:03.111Z,99439.28
2022-08-05T02:07:32.585Z,99437.97
2022-08-05T02:10:02.395Z,99445.03
2022-08-05T02:12:36.001Z,99438.81
2022-08-05T02:15:12.377Z,99440.22
2022-08-05T02:18:30.887Z,99442.44
2022-08-05T02:20:41.439Z,99447.13
2022-08-05T02:23:13.490Z,99445.19
2022-08-05T02:25:49.761Z,99444.53
2022-08-05T02:28:28.616Z,99439.50
2022-08-05T02:31:04.142Z,99446.00
2022-08-05T02:33:38.280Z,99438.38
2022-08-05T02:36:13.483Z,99441.72
2022-08-05T02:38:53.386Z,99443.53
2022-08-05T02:41:28.561Z,99439.03
2022-08-05T02:44:13.301Z,99446.13
2022-08-05T02:46:58.880Z,99438.31
2022-08-05T02:49:36.448Z,99444.03
2022-08-05T02:52:08.750Z,99444.03
2022-08-05T02:54:41.052Z,99437.41
2022-08-05T02:58:10.618Z,99433.66
2022-08-05T03:00:03.061Z,99433.16
2022-08-05T03:02:36.409Z,99438.00
2022-08-05T03:05:06.619Z,99444.53
2022-08-05T03:08:00.881Z,99443.75
2022-08-05T03:10:25.794Z,99446.81
2022-08-05T03:12:55.155Z,99442.00
2022-08-05T03:15:24.336Z,99441.84
2022-08-05T03:17:57.536Z,99447.25
2022-08-05T03:20:26.818Z,99454.09
2022-08-05T03:22:57.209Z,99447.56
2022-08-05T03:25:32.906Z,99444.97
2022-08-05T03:28:18.528Z,99450.91
2022-08-05T03:30:50.865Z,99452.91
2022-08-05T03:33:20.906Z,99453.25
2022-08-05T03:35:50.379Z,99452.47
2022-08-05T03:38:32.862Z,99450.47
2022-08-05T03:41:08.239Z,99457.53
2022-08-05T03:44:08.040Z,99451.59
2022-08-05T03:46:30.005Z,99452.19
2022-08-05T03:49:02.267Z,99455.03
2022-08-05T03:52:38.087Z,99461.09
2022-08-05T03:55:50.982Z,99449.00
2022-08-05T03:57:41.150Z,99453.66
2022-08-05T04:00:15.928Z,99450.59
2022-08-05T04:02:57.724Z,99451.88
2022-08-05T04:05:33.681Z,99451.28
2022-08-05T04:08:05.730Z,99445.00
2022-08-05T04:10:45.359Z,99443.81
2022-08-05T04:13:13.947Z,99445.03
2022-08-05T04:15:52.771Z,99442.47
2022-08-05T04:18:32.292Z,99435.22
2022-08-05T04:21:07.989Z,99435.72
2022-08-05T04:23:57.296Z,99440.22
2022-08-05T04:26:32.351Z,99441.16
2022-08-05T04:29:01.147Z,99435.53
2022-08-05T04:31:38.481Z,99435.22
2022-08-05T04:34:24.495Z,99434.31
2022-08-05T04:36:58.336Z,99433.16
2022-08-05T04:39:27.398Z,99429.06
2022-08-05T04:41:56.275Z,99424.75
2022-08-05T04:44:29.692Z,99431.72
2022-08-05T04:46:59.555Z,99433.41
2022-08-05T04:50:02.046Z,99436.28
2022-08-05T04:52:18.610Z,99423.63
2022-08-05T04:54:47.334Z,99424.44
2022-08-05T04:57:17.723Z,99425.66
2022-08-05T04:59:48.077Z,99435.00
2022-08-05T05:02:37.197Z,99429.44
2022-08-05T05:05:16.994Z,99431.91
2022-08-05T05:07:56.457Z,99434.22
2022-08-05T05:10:29.518Z,99436.34
2022-08-05T05:12:58.075Z,99431.78
2022-08-05T05:15:56.762Z,99437.03
2022-08-05T05:18:31.610Z,99440.28
2022-08-05T05:21:03.800Z,99433.00
2022-08-05T05:24:01.705Z,99429.97
2022-08-05T05:26:28.753Z,99423.41
2022-08-05T05:29:02.376Z,99419.03
2022-08-05T05:34:02.167Z,99428.47
2022-08-05T05:36:31.692Z,99423.78
2022-08-05T05:39:03.802Z,99424.63
2022-08-05T05:41:40.706Z,99423.44
2022-08-05T05:44:26.979Z,99424.56
2022-08-05T05:46:58.577Z,99423.09
2022-08-05T05:49:33.084Z,99429.13
2022-08-05T05:52:01.509Z,99423.13
2022-08-05T05:54:51.102Z,99432.88
2022-08-05T05:57:20.366Z,99430.28
2022-08-05T05:59:49.134Z,99423.66
2022-08-05T06:02:27.939Z,99425.81
2022-08-05T06:05:01.231Z,99427.22
2022-08-05T06:07:42.024Z,99422.75
2022-08-05T06:10:12.658Z,99424.13
2022-08-05T06:12:42.357Z,99421.13
2022-08-05T06:15:23.554Z,99419.06
2022-08-05T06:17:54.717Z,99415.03
2022-08-05T06:20:23.252Z,99425.66
2022-08-05T06:22:51.348Z,99423.03
2022-08-05T06:25:25.012Z,99412.50
2022-08-05T06:28:20.976Z,99418.41
2022-08-05T06:30:50.021Z,99418.91
2022-08-05T06:33:19.203Z,99419.34
2022-08-05T06:36:08.056Z,99424.50
2022-08-05T06:38:37.151Z,99419.59
2022-08-05T06:41:08.225Z,99420.53
2022-08-05T06:43:57.742Z,99419.16
2022-08-05T06:46:30.341Z,99416.22
2022-08-05T06:48:59.922Z,99424.28
2022-08-05T06:51:31.005Z,99422.09
2022-08-05T06:54:00.370Z,99418.91
2022-08-05T06:56:34.555Z,99422.63
2022-08-05T06:59:03.806Z,99419.84
2022-08-05T07:01:41.520Z,99418.59
2022-08-05T07:04:11.178Z,99422.00
2022-08-05T07:06:42.364Z,99424.00
2022-08-05T07:09:10.475Z,99418.28
2022-08-05T07:11:40.130Z,99421.38
2022-08-05T07:14:29.406Z,99430.16
2022-08-05T07:17:59.179Z,99425.69
2022-08-05T07:20:31.195Z,99419.78
2022-08-05T07:22:39.808Z,99421.78
2022-08-05T07:25:23.377Z,99418.22
2022-08-05T07:28:05.871Z,99421.28
2022-08-05T07:30:39.707Z,99421.75
2022-08-05T07:33:16.636Z,99414.44
2022-08-05T07:36:04.136Z,99414.56
2022-08-05T07:38:42.772Z,99401.41
2022-08-05T07:42:08.709Z,99416.16
2022-08-05T07:44:05.066Z,99408.53
2022-08-05T07:46:34.597Z,99409.94
2022-08-05T07:49:06.344Z,99409.53
2022-08-05T07:51:41.158Z,99412.44
2022-08-05T07:54:30.842Z,99402.66
2022-08-05T07:57:17.765Z,99405.19
2022-08-05T07:59:49.628Z,99403.88
2022-08-05T08:02:18.433Z,99405.22
2022-08-05T08:04:49.243Z,99404.28
2022-08-05T08:07:21.962Z,99397.41
2022-08-05T08:09:54.899Z,99394.38
2022-08-05T08:12:35.430Z,99393.50
2022-08-05T08:15:15.404Z,99403.69
2022-08-05T08:17:49.748Z,99402.81
2022-08-05T08:20:45.140Z,99393.78
2022-08-05T08:24:00.488Z,99398.13
2022-08-05T08:26:00.808Z,99395.81
2022-08-05T08:28:36.547Z,99394.97
2022-08-05T08:31:07.975Z,99389.00
2022-08-05T08:33:37.983Z,99396.63
2022-08-05T08:38:56.909Z,99391.19
2022-08-05T08:41:51.737Z,99386.22
2022-08-05T08:45:18.348Z,99377.63
2022-08-05T08:47:21.841Z,99376.72
2022-08-05T08:50:06.103Z,99375.69
2022-08-05T08:52:51.806Z,99363.53
2022-08-05T08:56:02.948Z,99361.16
2022-08-05T08:58:13.106Z,99361.41
2022-08-05T09:00:44.460Z,99359.28
2022-08-05T09:03:16.033Z,99353.78
2022-08-05T09:06:08.487Z,99351.66
2022-08-05T09:08:40.196Z,99353.78
2022-08-05T09:11:13.598Z,99353.84
2022-08-05T09:14:10.203Z,99351.81
2022-08-05T09:16:31.875Z,99342.44
2022-08-05T09:19:01.703Z,99332.84
2022-08-05T09:22:22.001Z,99327.97
2022-08-05T09:24:24.190Z,99333.59
2022-08-05T09:26:54.403Z,99328.50
2022-08-05T09:29:30.713Z,99324.25
2022-08-05T09:32:51.841Z,99321.81
2022-08-05T09:34:59.113Z,99329.81
2022-08-05T09:38:16.594Z,99317.88
2022-08-05T09:40:32.583Z,99315.38
2022-08-05T09:43:01.925Z,99315.47
2022-08-05T09:46:06.524Z,99312.09
2022-08-05T09:48:28.448Z,99308.91
2022-08-05T09:51:01.429Z,99305.59
2022-08-05T09:53:54.993Z,99299.97
2022-08-05T09:56:26.614Z,99298.75
2022-08-05T09:58:59.678Z,99298.25
2022-08-05T10:01:32.372Z,99295.19
2022-08-05T10:04:03.768Z,99290.88
2022-08-05T10:06:34.348Z,99290.34
2022-08-05T10:09:27.568Z,99283.50
2022-08-05T10:11:56.955Z,99288.13
2022-08-05T10:14:30.267Z,99283.25
2022-08-05T10:17:37.239Z,99280.44
2022-08-05T10:20:09.949Z,99281.75
2022-08-05T10:22:43.086Z,99287.09
2022-08-05T10:25:20.277Z,99283.53
2022-08-05T10:28:09.291Z,99280.72
2022-08-05T10:31:21.048Z,99290.41
2022-08-05T10:33:29.644Z,99286.53
2022-08-05T10:36:05.353Z,99276.59
2022-08-05T10:38:36.613Z,99271.53
2022-08-05T10:41:15.116Z,99256.47
2022-08-05T10:43:59.271Z,99254.41
2022-08-05T10:46:45.041Z,99257.75
2022-08-05T10:49:16.432Z,99254.41
2022-08-05T10:51:58.331Z,99241.41
2022-08-05T10:54:56.205Z,99259.50
2022-08-05T10:57:31.843Z,99254.91
2022-08-05T11:00:20.022Z,99252.38
2022-08-05T11:03:23.513Z,99243.94
2022-08-05T11:06:16.134Z,99239.09
2022-08-05T11:09:39.138Z,99241.41
2022-08-05T11:12:50.523Z,99240.16
2022-08-05T11:16:00.498Z,99233.47
2022-08-05T11:18:27.466Z,99226.09
2022-08-05T11:20:59.043Z,99230.69
2022-08-05T11:24:02.306Z,99222.47
2022-08-05T11:26:28.404Z,99225.97
2022-08-05T11:29:11.778Z,99219.28
2022-08-05T11:31:56.929Z,99211.50
2022-08-05T11:34:38.965Z,99202.47
2022-08-05T11:38:36.460Z,99205.91
2022-08-05T11:40:02.859Z,99206.91
2022-08-05T11:42:37.782Z,99202.94
2022-08-05T11:45:14.258Z,99200.78
2022-08-05T11:47:54.889Z,99198.03
2022-08-05T11:50:23.611Z,99193.53
2022-08-05T11:52:57.679Z,99194.84
2022-08-05T11:55:32.062Z,99194.34
2022-08-05T11:58:10.521Z,99190.41
2022-08-05T12:00:44.138Z,99189.66
2022-08-05T12:03:28.859Z,99189.91
2022-08-05T12:06:03.060Z,99191.03
2022-08-05T12:08:32.868Z,99175.81
2022-08-05T12:11:05.730Z,99177.06
2022-08-05T12:13:48.478Z,99174.94
2022-08-05T12:16:26.976Z,99169.88
2022-08-05T12:18:56.677Z,99175.63
2022-08-05T12:21:29.929Z,99170.84
2022-08-05T12:24:04.890Z,99162.16
2022-08-05T12:26:36.278Z,99163.09
2022-08-05T12:29:09.909Z,99164.09
2022-08-05T12:31:53.448Z,99163.31
2022-08-05T12:34:26.859Z,99153.38
2022-08-05T12:36:57.683Z,99160.63
2022-08-05T12:39:34.657Z,99154.81
2022-08-05T12:42:14.292Z,99149.25
2022-08-05T12:44:44.840Z,99151.81
2022-08-05T12:47:17.215Z,99142.13
2022-08-05T12:50:03.936Z,99141.38
2022-08-05T12:52:38.655Z,99132.41
2022-08-05T12:55:22.036Z,99137.06
2022-08-05T12:58:51.350Z,99136.91
2022-08-05T13:02:03.767Z,99135.91
2022-08-05T13:03:41.354Z,99139.09
2022-08-05T13:06:14.200Z,99126.88
2022-08-05T13:08:50.754Z,99128.88
2022-08-05T13:11:47.058Z,99122.19
2022-08-05T13:14:19.503Z,99127.69
2022-08-05T13:16:57.571Z,99120.47
2022-08-05T13:19:51.073Z,99112.56
2022-08-05T13:22:29.120Z,99112.03
2022-08-05T13:25:00.961Z,99105.44
2022-08-05T13:27:40.929Z,99113.41
2022-08-05T13:30:35.144Z,99109.78
2022-08-05T13:33:01.285Z,99100.97
2022-08-05T13:35:47.449Z,99104.63
2022-08-05T13:38:30.413Z,99096.94
2022-08-05T13:41:02.765Z,99098.06
2022-08-05T13:43:44.046Z,99098.84
2022-08-05T13:46:35.723Z,99099.50
2022-08-05T13:49:11.546Z,99096.59
2022-08-05T13:51:46.199Z,99089.09
2022-08-05T13:54:16.018Z,99090.91
2022-08-05T13:56:51.397Z,99081.28
2022-08-05T13:59:23.743Z,99084.25
2022-08-05T14:01:56.594Z,99082.31
2022-08-05T14:04:49.858Z,99074.84
2022-08-05T14:07:55.400Z,99076.56
2022-08-05T14:10:12.650Z,99071.88
2022-08-05T14:12:42.703Z,99065.19
2022-08-05T14:16:06.853Z,99062.75
2022-08-05T14:18:00.822Z,99059.81
2022-08-05T14:20:29.947Z,99059.94
2022-08-05T14:23:00.601Z,99058.38
2022-08-05T14:25:30.738Z,99057.88
2022-08-05T14:27:59.080Z,99066.34
2022-08-05T14:30:27.785Z,99065.88
2022-08-05T14:32:57.059Z,99058.53
2022-08-05T14:35:49.995Z,99060.44
2022-08-05T14:38:32.426Z,99055.91
2022-08-05T14:41:04.447Z,99057.03
2022-08-05T14:43:59.215Z,99059.09
2022-08-05T14:46:28.388Z,99056.97
2022-08-05T14:48:58.874Z,99054.47
2022-08-05T14:51:30.766Z,99055.22
2022-08-05T14:54:26.306Z,99046.75
2022-08-05T14:56:49.428Z,99047.69
2022-08-05T14:59:21.181Z,99046.22
2022-08-05T15:01:49.973Z,99049.19
2022-08-05T15:04:20.431Z,99047.63
2022-08-05T15:06:49.882Z,99046.03
2022-08-05T15:09:54.039Z,99039.50
2022-08-05T15:12:11.500Z,99033.22
2022-08-05T15:14:49.534Z,99034.59
2022-08-05T15:17:46.502Z,99038.44
2022-08-05T15:20:18.605Z,99036.88
2022-08-05T15:22:54.113Z,99037.84
2022-08-05T15:25:40.833Z,99031.34
2022-08-05T15:28:16.161Z,99034.56
2022-08-05T15:30:45.703Z,99035.44
2022-08-05T15:33:56.403Z,99030.84
2022-08-05T15:36:04.231Z,99023.34
2022-08-05T15:38:36.649Z,99029.94
2022-08-05T15:41:20.860Z,99024.91
2022-08-05T15:43:52.113Z,99020.75
2022-08-05T15:46:24.394Z,99013.88
2022-08-05T15:49:00.950Z,99025.22
2022-08-05T15:52:12.494Z,99021.69
2022-08-05T15:54:34.491Z,99022.59
2022-08-05T15:57:07.510Z,99031.34
2022-08-05T15:59:36.386Z,99017.13
2022-08-05T16:02:14.257Z,99008.25
2022-08-05T16:04:54.779Z,99014.66
2022-08-05T16:07:23.045Z,99009.63
2022-08-05T16:09:51.338Z,99013.19
2022-08-05T16:12:23.811Z,99011.66
2022-08-05T16:14:52.164Z,99015.47
2022-08-05T16:17:20.439Z,99014.50
2022-08-05T16:20:04.221Z,99010.66
2022-08-05T16:22:37.065Z,99010.94
2022-08-05T16:25:09.602Z,99012.00
2022-08-05T16:28:00.152Z,99015.84
2022-08-05T16:30:30.798Z,99014.06
2022-08-05T16:33:00.996Z,99007.69
2022-08-05T16:35:30.819Z,99011.00
2022-08-05T16:38:03.627Z,99004.63
2022-08-05T16:40:51.858Z,99013.06
2022-08-05T16:43:31.639Z,99013.34
2022-08-05T16:46:07.098Z,99012.31
2022-08-05T16:48:49.840Z,99008.72
2022-08-05T16:51:17.930Z,99011.53
2022-08-05T16:54:03.913Z,99024.06
2022-08-05T16:56:34.929Z,99022.56
2022-08-05T16:59:09.064Z,99022.31
2022-08-05T17:01:53.576Z,99024.88
2022-08-05T17:04:23.850Z,99028.72
2022-08-05T17:06:55.676Z,99028.22
2022-08-05T17:09:28.061Z,99030.25
2022-08-05T17:12:00.026Z,99036.38
2022-08-05T17:14:37.495Z,99032.56
2022-08-05T17:17:14.531Z,99028.72
2022-08-05T17:19:46.044Z,99035.34
2022-08-05T17:22:24.640Z,99032.28
2022-08-05T17:24:57.042Z,99046.72
2022-08-05T17:27:33.635Z,99038.06
2022-08-05T17:30:12.202Z,99042.13
2022-08-05T17:32:47.863Z,99042.38
2022-08-05T17:35:21.010Z,99049.00
2022-08-05T17:37:50.577Z,99045.44
2022-08-05T17:40:22.550Z,99049.75
2022-08-05T17:42:52.820Z,99053.81
2022-08-05T17:45:29.476Z,99059.38
2022-08-05T17:47:57.864Z,99061.41
2022-08-05T17:50:28.190Z,99060.09
2022-08-05T17:52:59.087Z,99059.78
2022-08-05T17:55:37.316Z,99069.66
2022-08-05T17:58:11.097Z,99067.13
2022-08-05T18:00:47.239Z,99076.25
2022-08-05T18:06:11.873Z,99074.38
2022-08-05T18:08:44.423Z,99078.38
2022-08-05T18:11:23.752Z,99090.06
2022-08-05T18:13:53.145Z,99087.75
2022-08-05T18:16:22.775Z,99093.78
2022-08-05T18:18:50.999Z,99087.88
2022-08-05T18:21:22.745Z,99095.50
2022-08-05T18:23:54.353Z,99097.22
2022-08-05T18:26:27.813Z,99097.66
2022-08-05T18:28:58.798Z,99102.44
2022-08-05T18:31:32.930Z,99102.31
2022-08-05T18:34:05.939Z,99107.91
2022-08-05T18:36:36.353Z,99107.34
2022-08-05T18:39:09.803Z,99107.78
2022-08-05T18:42:01.203Z,99110.44
2022-08-05T18:44:35.370Z,99107.53
2022-08-05T18:47:22.776Z,99103.34
2022-08-05T18:50:11.966Z,99105.03
2022-08-05T18:52:50.555Z,99108.81
2022-08-05T18:55:20.312Z,99110.22
2022-08-05T18:57:53.072Z,99108.31
2022-08-05T19:00:27.158Z,99113.53
2022-08-05T19:03:04.093Z,99114.94
2022-08-05T19:06:13.166Z,99107.72
2022-08-05T19:08:30.529Z,99117.56
2022-08-05T19:11:04.571Z,99113.16
2022-08-05T19:13:35.614Z,99111.56
2022-08-05T19:16:04.950Z,99110.97
2022-08-05T19:19:12.951Z,99109.09
2022-08-05T19:21:41.396Z,99113.28
2022-08-05T19:24:12.976Z,99116.00
2022-08-05T19:26:54.904Z,99115.66
2022-08-05T19:29:26.761Z,99122.88
2022-08-05T19:32:05.384Z,99122.78
2022-08-05T19:34:38.214Z,99133.34
2022-08-05T19:37:06.852Z,99123.16
2022-08-05T19:39:45.897Z,99124.31
2022-08-05T19:42:34.962Z,99118.94
2022-08-05T19:45:05.975Z,99122.41
2022-08-05T19:47:34.775Z,99121.81
2022-08-05T19:50:11.794Z,99118.28
2022-08-05T19:52:40.953Z,99118.34
2022-08-05T19:56:14.497Z,99111.13
2022-08-05T19:58:10.364Z,99116.44
2022-08-05T20:00:48.916Z,99118.81
2022-08-05T20:03:17.096Z,99122.94
2022-08-05T20:05:51.165Z,99122.81
2022-08-05T20:08:20.386Z,99122.72
2022-08-05T20:10:52.866Z,99110.41
2022-08-05T20:13:54.582Z,99114.91
2022-08-05T20:16:09.965Z,99116.47
2022-08-05T20:18:39.135Z,99108.50
2022-08-05T20:21:09.190Z,99122.31
2022-08-05T20:23:50.278Z,99124.97
2022-08-05T20:26:23.408Z,99123.81
2022-08-05T20:28:55.926Z,99121.94
2022-08-05T20:31:37.611Z,99115.13
2022-08-05T20:34:14.431Z,99119.03
2022-08-05T20:36:44.711Z,99123.25
2022-08-05T20:39:13.670Z,99121.09
2022-08-05T20:41:46.706Z,99123.72
2022-08-05T20:44:29.098Z,99125.63
2022-08-05T20:46:59.786Z,99113.72
2022-08-05T20:49:28.559Z,99124.06
2022-08-05T20:51:58.779Z,99122.97
2022-08-05T20:54:55.087Z,99120.94
2022-08-05T20:57:24.894Z,99122.66
2022-08-05T21:00:20.738Z,99118.75
2022-08-05T21:02:56.942Z,99124.03
2022-08-05T21:05:25.712Z,99126.50
2022-08-05T21:08:07.885Z,99127.63
2022-08-05T21:10:36.338Z,99125.63
2022-08-05T21:13:10.371Z,99124.78
2022-08-05T21:15:46.116Z,99128.22
2022-08-05T21:18:19.806Z,99129.66
2022-08-05T21:20:53.052Z,99132.44
2022-08-05T21:23:22.858Z,99123.06
2022-08-05T21:25:51.020Z,99129.59
2022-08-05T21:28:23.811Z,99129.59
2022-08-05T21:30:52.182Z,99129.94
2022-08-05T21:33:22.022Z,99128.75
2022-08-05T21:35:58.472Z,99127.84
2022-08-05T21:38:28.570Z,99136.53
2022-08-05T21:40:57.327Z,99127.56
2022-08-05T21:43:26.078Z,99130.53
2022-08-05T21:45:57.854Z,99125.47
2022-08-05T21:48:28.974Z,99132.78
2022-08-05T21:51:00.101Z,99137.94
2022-08-05T21:53:29.620Z,99138.41
2022-08-05T21:56:09.944Z,99134.09
2022-08-05T21:58:54.827Z,99130.38
2022-08-05T22:01:26.246Z,99124.06
2022-08-05T22:03:54.501Z,99121.75
2022-08-05T22:06:35.301Z,99118.03
2022-08-05T22:09:14.589Z,99120.66
2022-08-05T22:11:46.909Z,99125.59
2022-08-05T22:14:37.258Z,99124.69
2022-08-05T22:17:06.635Z,99118.22
2022-08-05T22:20:01.193Z,99119.00
2022-08-05T22:22:28.254Z,99114.69
2022-08-05T22:25:27.369Z,99115.47
2022-08-05T22:28:08.639Z,99117.31
2022-08-05T22:30:44.011Z,99120.69
2022-08-05T22:33:57.820Z,99131.19
2022-08-05T22:36:14.594Z,99121.00
2022-08-05T22:38:48.620Z,99120.38
2022-08-05T22:41:26.338Z,99128.41
2022-08-05T22:44:08.696Z,99129.03
2022-08-05T22:46:39.945Z,99135.34
2022-08-05T22:49:23.139Z,99128.09
2022-08-05T22:52:05.388Z,99133.47
2022-08-05T22:54:37.178Z,99133.47
2022-08-05T22:57:08.736Z,99141.97
2022-08-05T22:59:46.114Z,99134.88
2022-08-05T23:02:26.902Z,99142.44
2022-08-05T23:05:02.047Z,99139.81
2022-08-05T23:07:44.770Z,99146.84
2022-08-05T23:10:20.174Z,99153.03
2022-08-05T23:12:54.907Z,99151.78
2022-08-05T23:15:26.931Z,99151.63
2022-08-05T23:18:00.485Z,99151.47
2022-08-05T23:20:32.524Z,99151.75
2022-08-05T23:23:03.490Z,99150.66
2022-08-05T23:25:51.365Z,99158.97
2022-08-05T23:28:29.041Z,99154.66
2022-08-05T23:31:16.100Z,99154.66
2022-08-05T23:34:03.966Z,99160.03
2022-08-05T23:36:39.698Z,99147.25
2022-08-05T23:39:17.630Z,99151.38
2022-08-05T23:41:52.020Z,99152.63
2022-08-05T23:44:27.868Z,99153.84
2022-08-05T23:47:00.603Z,99154.16
2022-08-05T23:49:35.693Z,99151.06
2022-08-05T23:52:22.258Z,99159.69
2022-08-05T23:54:54.564Z,99164.25
2022-08-05T23:57:24.815Z,99158.44
